createdAt,value
2022-08-11T00:11:59.335Z,31
2022-08-11T00:40:58.522Z,31
2022-08-11T01:10:25.984Z,32
2022-08-11T01:39:49.761Z,32
2022-08-11T02:09:10.779Z,32
2022-08-11T02:38:08.586Z,33
2022-08-11T03:07:31.450Z,36
2022-08-11T03:37:15.887Z,38
2022-08-11T04:05:39.293Z,40
2022-08-11T04:35:03.653Z,39
2022-08-11T05:04:29.172Z,43
2022-08-11T05:33:50.732Z,44
2022-08-11T06:03:21.767Z,45
2022-08-11T06:32:50.284Z,45
2022-08-11T07:02:31.630Z,44
2022-08-11T07:31:21.682Z,43
2022-08-11T08:01:03.272Z,40
2022-08-11T08:30:00.036Z,37
2022-08-11T08:59:49.736Z,33
2022-08-11T09:28:33.624Z,29
2022-08-11T09:57:45.616Z,27
2022-08-11T10:27:17.510Z,28
2022-08-11T10:56:41.143Z,26
2022-08-11T11:26:00.622Z,23
2022-08-11T11:55:36.373Z,23
2022-08-11T12:25:11.586Z,22
2022-08-11T12:54:33.163Z,25
2022-08-11T13:24:03.966Z,27
2022-08-11T13:52:56.940Z,25
2022-08-11T14:22:24.780Z,25
2022-08-11T14:52:01.783Z,18
2022-08-11T15:21:37.000Z,20
2022-08-11T15:50:54.774Z,21
2022-08-11T16:20:15.070Z,22
2022-08-11T16:49:39.980Z,23
2022-08-11T17:20:39.214Z,22
2022-08-11T17:48:08.681Z,23
2022-08-11T18:17:25.458Z,24
2022-08-11T18:46:41.262Z,26
2022-08-11T19:15:55.800Z,27
2022-08-11T19:45:20.302Z,29
2022-08-11T20:14:48.399Z,28
2022-08-11T20:44:12.283Z,28
2022-08-11T21:13:39.522Z,29
2022-08-11T21:42:51.583Z,30
2022-08-11T22:12:35.329Z,32
2022-08-11T22:41:06.606Z,34
2022-08-11T23:10:32.833Z,34
2022-08-11T23:39:55.660Z,35
